sensor_id;sensor_type;location;lat;lon;timestamp;P1;durP1;ratioP1;P2;durP2;ratioP2
19167;SDS011;9716;53.114;18.040;2023-02-11T00:01:19;36.17;;;13.97;;
19167;SDS011;9716;53.114;18.040;2023-02-11T00:03:52;35.07;;;13.73;;
19167;SDS011;9716;53.114;18.040;2023-02-11T00:06:21;27.87;;;11.97;;
19167;SDS011;9716;53.114;18.040;2023-02-11T00:08:50;36.23;;;14.10;;
19167;SDS011;9716;53.114;18.040;2023-02-11T00:11:20;33.57;;;13.10;;
19167;SDS011;9716;53.114;18.040;2023-02-11T00:13:51;24.93;;;11.97;;
19167;SDS011;9716;53.114;18.040;2023-02-11T00:16:19;33.47;;;14.27;;
19167;SDS011;9716;53.114;18.040;2023-02-11T00:18:48;33.97;;;13.03;;
19167;SDS011;9716;53.114;18.040;2023-02-11T00:21:20;28.50;;;13.00;;
19167;SDS011;9716;53.114;18.040;2023-02-11T00:23:51;27.23;;;12.17;;
19167;SDS011;9716;53.114;18.040;2023-02-11T00:26:21;26.57;;;12.57;;
19167;SDS011;9716;53.114;18.040;2023-02-11T00:28:51;30.73;;;13.07;;
19167;SDS011;9716;53.114;18.040;2023-02-11T00:31:20;34.73;;;13.13;;
19167;SDS011;9716;53.114;18.040;2023-02-11T00:33:50;29.87;;;12.83;;
19167;SDS011;9716;53.114;18.040;2023-02-11T00:36:21;33.83;;;14.57;;
19167;SDS011;9716;53.114;18.040;2023-02-11T00:38:52;34.40;;;12.93;;
19167;SDS011;9716;53.114;18.040;2023-02-11T00:41:22;29.50;;;12.70;;
19167;SDS011;9716;53.114;18.040;2023-02-11T00:43:51;26.00;;;12.33;;
19167;SDS011;9716;53.114;18.040;2023-02-11T00:46:20;27.87;;;11.43;;
19167;SDS011;9716;53.114;18.040;2023-02-11T00:48:49;33.93;;;13.57;;
19167;SDS011;9716;53.114;18.040;2023-02-11T00:51:22;30.67;;;12.17;;
19167;SDS011;9716;53.114;18.040;2023-02-11T00:53:50;29.60;;;13.07;;
19167;SDS011;9716;53.114;18.040;2023-02-11T00:56:18;37.03;;;13.23;;
19167;SDS011;9716;53.114;18.040;2023-02-11T00:58:47;36.63;;;13.10;;
19167;SDS011;9716;53.114;18.040;2023-02-11T01:01:16;32.77;;;11.47;;
19167;SDS011;9716;53.114;18.040;2023-02-11T01:03:44;29.10;;;12.90;;
19167;SDS011;9716;53.114;18.040;2023-02-11T01:06:13;32.00;;;12.93;;
19167;SDS011;9716;53.114;18.040;2023-02-11T01:08:43;32.97;;;13.77;;
19167;SDS011;9716;53.114;18.040;2023-02-11T01:11:12;26.83;;;12.20;;
19167;SDS011;9716;53.114;18.040;2023-02-11T01:13:42;25.93;;;10.70;;
19167;SDS011;9716;53.114;18.040;2023-02-11T01:16:11;28.87;;;13.50;;
19167;SDS011;9716;53.114;18.040;2023-02-11T01:18:40;32.30;;;11.50;;
19167;SDS011;9716;53.114;18.040;2023-02-11T01:21:09;31.00;;;13.33;;
19167;SDS011;9716;53.114;18.040;2023-02-11T01:23:38;29.27;;;11.47;;
19167;SDS011;9716;53.114;18.040;2023-02-11T01:26:08;32.07;;;12.30;;
19167;SDS011;9716;53.114;18.040;2023-02-11T01:28:36;33.17;;;13.43;;
19167;SDS011;9716;53.114;18.040;2023-02-11T01:31:05;25.60;;;11.07;;
19167;SDS011;9716;53.114;18.040;2023-02-11T01:33:34;26.07;;;11.67;;
19167;SDS011;9716;53.114;18.040;2023-02-11T01:36:03;31.70;;;11.97;;
19167;SDS011;9716;53.114;18.040;2023-02-11T01:38:33;33.67;;;12.13;;
19167;SDS011;9716;53.114;18.040;2023-02-11T01:41:03;27.03;;;12.57;;
19167;SDS011;9716;53.114;18.040;2023-02-11T01:43:35;29.03;;;11.50;;
19167;SDS011;9716;53.114;18.040;2023-02-11T01:46:11;24.50;;;11.30;;
19167;SDS011;9716;53.114;18.040;2023-02-11T01:48:50;24.17;;;11.30;;
19167;SDS011;9716;53.114;18.040;2023-02-11T01:51:24;33.27;;;12.37;;
19167;SDS011;9716;53.114;18.040;2023-02-11T01:53:56;26.00;;;11.30;;
19167;SDS011;9716;53.114;18.040;2023-02-11T01:56:45;30.80;;;12.87;;
19167;SDS011;9716;53.114;18.040;2023-02-11T01:59:37;27.73;;;11.30;;
19167;SDS011;9716;53.114;18.040;2023-02-11T02:02:09;31.63;;;12.00;;
19167;SDS011;9716;53.114;18.040;2023-02-11T02:04:43;31.63;;;13.43;;
19167;SDS011;9716;53.114;18.040;2023-02-11T02:07:16;27.27;;;10.90;;
19167;SDS011;9716;53.114;18.040;2023-02-11T02:09:54;31.10;;;11.97;;
19167;SDS011;9716;53.114;18.040;2023-02-11T02:12:27;23.10;;;10.73;;
19167;SDS011;9716;53.114;18.040;2023-02-11T02:17:59;31.53;;;12.30;;
19167;SDS011;9716;53.114;18.040;2023-02-11T02:26:45;27.17;;;11.50;;
19167;SDS011;9716;53.114;18.040;2023-02-11T02:32:52;30.17;;;10.57;;
19167;SDS011;9716;53.114;18.040;2023-02-11T02:35:50;24.07;;;11.27;;
19167;SDS011;9716;53.114;18.040;2023-02-11T02:38:26;32.37;;;11.93;;
19167;SDS011;9716;53.114;18.040;2023-02-11T02:41:00;35.50;;;11.97;;
19167;SDS011;9716;53.114;18.040;2023-02-11T02:43:31;27.20;;;11.67;;
19167;SDS011;9716;53.114;18.040;2023-02-11T02:46:13;42.57;;;11.97;;
19167;SDS011;9716;53.114;18.040;2023-02-11T02:48:45;33.33;;;12.90;;
19167;SDS011;9716;53.114;18.040;2023-02-11T02:51:20;35.67;;;12.20;;
19167;SDS011;9716;53.114;18.040;2023-02-11T02:54:07;29.63;;;11.93;;
19167;SDS011;9716;53.114;18.040;2023-02-11T02:57:05;29.17;;;12.57;;
19167;SDS011;9716;53.114;18.040;2023-02-11T02:59:50;24.70;;;10.33;;
19167;SDS011;9716;53.114;18.040;2023-02-11T03:02:29;29.77;;;12.33;;
19167;SDS011;9716;53.114;18.040;2023-02-11T03:05:05;27.30;;;12.70;;
19167;SDS011;9716;53.114;18.040;2023-02-11T03:07:39;27.70;;;12.20;;
19167;SDS011;9716;53.114;18.040;2023-02-11T03:10:13;31.43;;;12.73;;
19167;SDS011;9716;53.114;18.040;2023-02-11T03:12:45;31.20;;;12.60;;
19167;SDS011;9716;53.114;18.040;2023-02-11T03:15:16;31.40;;;13.13;;
19167;SDS011;9716;53.114;18.040;2023-02-11T03:17:48;33.17;;;12.07;;
19167;SDS011;9716;53.114;18.040;2023-02-11T03:20:21;29.27;;;13.00;;
19167;SDS011;9716;53.114;18.040;2023-02-11T03:22:52;30.83;;;13.00;;
19167;SDS011;9716;53.114;18.040;2023-02-11T03:25:25;32.83;;;13.30;;
19167;SDS011;9716;53.114;18.040;2023-02-11T03:27:58;32.33;;;13.13;;
19167;SDS011;9716;53.114;18.040;2023-02-11T03:30:33;26.90;;;12.77;;
19167;SDS011;9716;53.114;18.040;2023-02-11T03:33:07;26.53;;;11.77;;
19167;SDS011;9716;53.114;18.040;2023-02-11T03:35:43;30.57;;;11.63;;
19167;SDS011;9716;53.114;18.040;2023-02-11T03:38:18;26.70;;;12.57;;
19167;SDS011;9716;53.114;18.040;2023-02-11T03:40:49;44.87;;;14.67;;
19167;SDS011;9716;53.114;18.040;2023-02-11T03:43:20;25.73;;;12.50;;
19167;SDS011;9716;53.114;18.040;2023-02-11T03:45:55;42.90;;;14.03;;
19167;SDS011;9716;53.114;18.040;2023-02-11T03:48:26;35.97;;;13.73;;
19167;SDS011;9716;53.114;18.040;2023-02-11T03:51:00;33.27;;;13.57;;
19167;SDS011;9716;53.114;18.040;2023-02-11T03:53:32;28.83;;;13.33;;
19167;SDS011;9716;53.114;18.040;2023-02-11T03:56:01;37.90;;;14.97;;
19167;SDS011;9716;53.114;18.040;2023-02-11T03:58:32;43.93;;;15.07;;
19167;SDS011;9716;53.114;18.040;2023-02-11T04:01:01;32.70;;;14.07;;
19167;SDS011;9716;53.114;18.040;2023-02-11T04:03:30;35.13;;;13.40;;
19167;SDS011;9716;53.114;18.040;2023-02-11T04:06:00;43.17;;;15.53;;
19167;SDS011;9716;53.114;18.040;2023-02-11T04:08:29;49.63;;;14.63;;
19167;SDS011;9716;53.114;18.040;2023-02-11T04:10:57;30.87;;;13.13;;
19167;SDS011;9716;53.114;18.040;2023-02-11T04:13:26;35.90;;;14.53;;
19167;SDS011;9716;53.114;18.040;2023-02-11T04:15:54;36.80;;;15.13;;
19167;SDS011;9716;53.114;18.040;2023-02-11T04:18:23;39.83;;;14.43;;
19167;SDS011;9716;53.114;18.040;2023-02-11T04:20:51;39.97;;;15.23;;
19167;SDS011;9716;53.114;18.040;2023-02-11T04:23:21;35.27;;;14.27;;
19167;SDS011;9716;53.114;18.040;2023-02-11T04:25:50;36.50;;;14.97;;
19167;SDS011;9716;53.114;18.040;2023-02-11T04:28:18;35.73;;;14.97;;
19167;SDS011;9716;53.114;18.040;2023-02-11T04:30:48;39.93;;;15.57;;
19167;SDS011;9716;53.114;18.040;2023-02-11T04:33:17;35.33;;;14.63;;
19167;SDS011;9716;53.114;18.040;2023-02-11T04:35:45;34.27;;;15.50;;
19167;SDS011;9716;53.114;18.040;2023-02-11T04:38:14;49.47;;;16.17;;
19167;SDS011;9716;53.114;18.040;2023-02-11T04:40:44;41.83;;;14.90;;
19167;SDS011;9716;53.114;18.040;2023-02-11T04:43:13;38.60;;;14.40;;
19167;SDS011;9716;53.114;18.040;2023-02-11T04:45:41;36.83;;;14.60;;
19167;SDS011;9716;53.114;18.040;2023-02-11T04:48:09;38.67;;;14.03;;
19167;SDS011;9716;53.114;18.040;2023-02-11T04:50:38;28.73;;;13.97;;
19167;SDS011;9716;53.114;18.040;2023-02-11T04:53:06;42.83;;;15.67;;
19167;SDS011;9716;53.114;18.040;2023-02-11T04:55:35;34.57;;;16.33;;
19167;SDS011;9716;53.114;18.040;2023-02-11T04:58:04;33.43;;;15.70;;
19167;SDS011;9716;53.114;18.040;2023-02-11T05:00:33;46.00;;;15.77;;
19167;SDS011;9716;53.114;18.040;2023-02-11T05:03:01;40.27;;;17.07;;
19167;SDS011;9716;53.114;18.040;2023-02-11T05:05:30;40.23;;;15.53;;
19167;SDS011;9716;53.114;18.040;2023-02-11T05:07:59;41.10;;;17.50;;
19167;SDS011;9716;53.114;18.040;2023-02-11T05:10:28;37.87;;;14.73;;
19167;SDS011;9716;53.114;18.040;2023-02-11T05:12:56;39.07;;;17.67;;
19167;SDS011;9716;53.114;18.040;2023-02-11T05:15:26;50.90;;;18.10;;
19167;SDS011;9716;53.114;18.040;2023-02-11T05:17:54;36.67;;;14.07;;
19167;SDS011;9716;53.114;18.040;2023-02-11T05:20:23;45.90;;;17.60;;
19167;SDS011;9716;53.114;18.040;2023-02-11T05:22:51;43.60;;;17.23;;
19167;SDS011;9716;53.114;18.040;2023-02-11T05:25:20;34.17;;;15.47;;
19167;SDS011;9716;53.114;18.040;2023-02-11T05:27:48;41.77;;;15.37;;
19167;SDS011;9716;53.114;18.040;2023-02-11T05:30:17;40.50;;;15.63;;
19167;SDS011;9716;53.114;18.040;2023-02-11T05:32:47;33.93;;;15.30;;
19167;SDS011;9716;53.114;18.040;2023-02-11T05:35:15;39.53;;;15.83;;
19167;SDS011;9716;53.114;18.040;2023-02-11T05:37:44;42.20;;;15.73;;
19167;SDS011;9716;53.114;18.040;2023-02-11T05:40:12;45.23;;;16.70;;
19167;SDS011;9716;53.114;18.040;2023-02-11T05:42:41;36.90;;;16.00;;
19167;SDS011;9716;53.114;18.040;2023-02-11T05:45:09;45.00;;;16.27;;
19167;SDS011;9716;53.114;18.040;2023-02-11T05:47:38;46.57;;;17.37;;
19167;SDS011;9716;53.114;18.040;2023-02-11T05:50:08;42.70;;;17.13;;
19167;SDS011;9716;53.114;18.040;2023-02-11T05:52:37;40.03;;;15.07;;
19167;SDS011;9716;53.114;18.040;2023-02-11T05:55:06;39.03;;;15.27;;
19167;SDS011;9716;53.114;18.040;2023-02-11T05:57:34;38.80;;;15.33;;
19167;SDS011;9716;53.114;18.040;2023-02-11T06:00:03;38.27;;;16.37;;
19167;SDS011;9716;53.114;18.040;2023-02-11T06:02:33;43.00;;;15.03;;
19167;SDS011;9716;53.114;18.040;2023-02-11T06:05:02;42.37;;;17.90;;
19167;SDS011;9716;53.114;18.040;2023-02-11T06:07:31;49.57;;;17.33;;
19167;SDS011;9716;53.114;18.040;2023-02-11T06:10:00;33.77;;;15.57;;
19167;SDS011;9716;53.114;18.040;2023-02-11T06:12:29;42.07;;;16.60;;
19167;SDS011;9716;53.114;18.040;2023-02-11T06:14:57;45.63;;;18.10;;
19167;SDS011;9716;53.114;18.040;2023-02-11T06:17:25;37.50;;;16.30;;
19167;SDS011;9716;53.114;18.040;2023-02-11T06:19:57;44.30;;;16.27;;
19167;SDS011;9716;53.114;18.040;2023-02-11T06:22:26;42.03;;;15.77;;
19167;SDS011;9716;53.114;18.040;2023-02-11T06:24:56;44.43;;;16.83;;
19167;SDS011;9716;53.114;18.040;2023-02-11T06:27:27;36.30;;;15.27;;
19167;SDS011;9716;53.114;18.040;2023-02-11T06:29:56;33.13;;;16.77;;
19167;SDS011;9716;53.114;18.040;2023-02-11T06:32:25;38.20;;;16.50;;
19167;SDS011;9716;53.114;18.040;2023-02-11T06:35:10;37.87;;;16.40;;
19167;SDS011;9716;53.114;18.040;2023-02-11T06:37:39;40.93;;;16.60;;
19167;SDS011;9716;53.114;18.040;2023-02-11T06:40:10;36.67;;;15.67;;
19167;SDS011;9716;53.114;18.040;2023-02-11T06:42:39;43.20;;;18.20;;
19167;SDS011;9716;53.114;18.040;2023-02-11T06:45:08;34.17;;;15.93;;
19167;SDS011;9716;53.114;18.040;2023-02-11T06:47:38;38.70;;;18.07;;
19167;SDS011;9716;53.114;18.040;2023-02-11T06:50:10;46.50;;;18.43;;
19167;SDS011;9716;53.114;18.040;2023-02-11T06:52:40;44.93;;;18.33;;
19167;SDS011;9716;53.114;18.040;2023-02-11T06:55:10;51.30;;;19.10;;
19167;SDS011;9716;53.114;18.040;2023-02-11T06:57:38;53.47;;;18.63;;
19167;SDS011;9716;53.114;18.040;2023-02-11T07:00:08;39.27;;;17.20;;
19167;SDS011;9716;53.114;18.040;2023-02-11T07:02:37;38.07;;;17.47;;
19167;SDS011;9716;53.114;18.040;2023-02-11T07:05:07;41.33;;;18.27;;
19167;SDS011;9716;53.114;18.040;2023-02-11T07:07:36;47.67;;;17.63;;
19167;SDS011;9716;53.114;18.040;2023-02-11T07:10:05;45.50;;;16.57;;
19167;SDS011;9716;53.114;18.040;2023-02-11T07:12:35;39.80;;;14.23;;
19167;SDS011;9716;53.114;18.040;2023-02-11T07:15:04;50.10;;;18.90;;
19167;SDS011;9716;53.114;18.040;2023-02-11T07:17:33;49.93;;;18.97;;
19167;SDS011;9716;53.114;18.040;2023-02-11T07:20:02;45.10;;;17.43;;
19167;SDS011;9716;53.114;18.040;2023-02-11T07:22:30;48.50;;;18.60;;
19167;SDS011;9716;53.114;18.040;2023-02-11T07:25:01;42.43;;;18.10;;
19167;SDS011;9716;53.114;18.040;2023-02-11T07:27:29;47.97;;;16.93;;
19167;SDS011;9716;53.114;18.040;2023-02-11T07:29:59;38.00;;;16.07;;
19167;SDS011;9716;53.114;18.040;2023-02-11T07:32:30;54.17;;;17.27;;
19167;SDS011;9716;53.114;18.040;2023-02-11T07:34:58;40.10;;;16.53;;
19167;SDS011;9716;53.114;18.040;2023-02-11T07:37:27;34.10;;;16.73;;
19167;SDS011;9716;53.114;18.040;2023-02-11T07:39:55;41.67;;;18.13;;
19167;SDS011;9716;53.114;18.040;2023-02-11T07:42:24;55.37;;;18.13;;
19167;SDS011;9716;53.114;18.040;2023-02-11T07:44:52;39.00;;;16.70;;
19167;SDS011;9716;53.114;18.040;2023-02-11T07:47:22;33.70;;;16.27;;
19167;SDS011;9716;53.114;18.040;2023-02-11T07:49:51;42.50;;;17.97;;
19167;SDS011;9716;53.114;18.040;2023-02-11T07:52:22;47.67;;;17.07;;
19167;SDS011;9716;53.114;18.040;2023-02-11T07:54:50;45.80;;;17.00;;
19167;SDS011;9716;53.114;18.040;2023-02-11T07:57:19;48.70;;;17.03;;
19167;SDS011;9716;53.114;18.040;2023-02-11T07:59:47;38.27;;;17.13;;
19167;SDS011;9716;53.114;18.040;2023-02-11T08:02:16;46.90;;;17.83;;
19167;SDS011;9716;53.114;18.040;2023-02-11T08:04:46;38.87;;;16.70;;
19167;SDS011;9716;53.114;18.040;2023-02-11T08:07:14;35.43;;;16.97;;
19167;SDS011;9716;53.114;18.040;2023-02-11T08:09:43;42.60;;;16.93;;
19167;SDS011;9716;53.114;18.040;2023-02-11T08:12:11;39.30;;;16.53;;
19167;SDS011;9716;53.114;18.040;2023-02-11T08:14:40;39.20;;;17.37;;
19167;SDS011;9716;53.114;18.040;2023-02-11T08:17:09;42.87;;;17.30;;
19167;SDS011;9716;53.114;18.040;2023-02-11T08:19:37;37.60;;;16.20;;
19167;SDS011;9716;53.114;18.040;2023-02-11T08:22:07;35.87;;;16.10;;
19167;SDS011;9716;53.114;18.040;2023-02-11T08:24:36;39.40;;;16.03;;
19167;SDS011;9716;53.114;18.040;2023-02-11T08:27:04;44.27;;;16.33;;
19167;SDS011;9716;53.114;18.040;2023-02-11T08:29:33;36.70;;;15.47;;
19167;SDS011;9716;53.114;18.040;2023-02-11T08:32:02;37.47;;;14.97;;
19167;SDS011;9716;53.114;18.040;2023-02-11T08:34:31;42.77;;;16.93;;
19167;SDS011;9716;53.114;18.040;2023-02-11T08:36:59;41.40;;;16.27;;
19167;SDS011;9716;53.114;18.040;2023-02-11T08:39:29;32.53;;;15.43;;
19167;SDS011;9716;53.114;18.040;2023-02-11T08:41:57;36.03;;;16.30;;
19167;SDS011;9716;53.114;18.040;2023-02-11T08:44:26;37.90;;;14.77;;
19167;SDS011;9716;53.114;18.040;2023-02-11T08:46:55;40.93;;;16.37;;
19167;SDS011;9716;53.114;18.040;2023-02-11T08:49:24;39.00;;;15.33;;
19167;SDS011;9716;53.114;18.040;2023-02-11T08:51:52;40.87;;;15.97;;
19167;SDS011;9716;53.114;18.040;2023-02-11T08:54:21;37.97;;;17.30;;
19167;SDS011;9716;53.114;18.040;2023-02-11T08:56:51;26.73;;;15.20;;
19167;SDS011;9716;53.114;18.040;2023-02-11T08:59:20;44.50;;;16.57;;
19167;SDS011;9716;53.114;18.040;2023-02-11T09:01:48;41.40;;;16.97;;
19167;SDS011;9716;53.114;18.040;2023-02-11T09:04:17;45.03;;;16.53;;
19167;SDS011;9716;53.114;18.040;2023-02-11T09:06:45;41.57;;;17.53;;
19167;SDS011;9716;53.114;18.040;2023-02-11T09:09:15;39.00;;;17.00;;
19167;SDS011;9716;53.114;18.040;2023-02-11T09:11:43;39.33;;;16.10;;
19167;SDS011;9716;53.114;18.040;2023-02-11T09:14:16;41.70;;;16.03;;
19167;SDS011;9716;53.114;18.040;2023-02-11T09:16:46;40.70;;;16.00;;
19167;SDS011;9716;53.114;18.040;2023-02-11T09:19:16;43.60;;;17.10;;
19167;SDS011;9716;53.114;18.040;2023-02-11T09:21:45;46.60;;;17.37;;
19167;SDS011;9716;53.114;18.040;2023-02-11T09:24:14;42.57;;;17.03;;
19167;SDS011;9716;53.114;18.040;2023-02-11T09:26:42;47.97;;;18.43;;
19167;SDS011;9716;53.114;18.040;2023-02-11T09:29:11;43.83;;;18.47;;
19167;SDS011;9716;53.114;18.040;2023-02-11T09:31:41;41.23;;;17.47;;
19167;SDS011;9716;53.114;18.040;2023-02-11T09:34:10;36.90;;;17.47;;
19167;SDS011;9716;53.114;18.040;2023-02-11T09:36:39;47.67;;;18.83;;
19167;SDS011;9716;53.114;18.040;2023-02-11T09:39:10;41.77;;;18.23;;
19167;SDS011;9716;53.114;18.040;2023-02-11T09:41:58;44.63;;;17.67;;
19167;SDS011;9716;53.114;18.040;2023-02-11T09:44:38;45.50;;;17.87;;
19167;SDS011;9716;53.114;18.040;2023-02-11T09:47:16;43.97;;;17.77;;
19167;SDS011;9716;53.114;18.040;2023-02-11T09:49:51;45.33;;;17.87;;
19167;SDS011;9716;53.114;18.040;2023-02-11T09:52:29;37.60;;;16.97;;
19167;SDS011;9716;53.114;18.040;2023-02-11T09:55:03;42.70;;;16.40;;
19167;SDS011;9716;53.114;18.040;2023-02-11T09:57:39;51.83;;;18.57;;
19167;SDS011;9716;53.114;18.040;2023-02-11T10:00:16;39.43;;;17.57;;
19167;SDS011;9716;53.114;18.040;2023-02-11T10:02:54;38.03;;;16.87;;
19167;SDS011;9716;53.114;18.040;2023-02-11T10:08:36;48.27;;;17.33;;
19167;SDS011;9716;53.114;18.040;2023-02-11T10:11:12;46.20;;;17.57;;
19167;SDS011;9716;53.114;18.040;2023-02-11T10:14:00;32.43;;;14.73;;
19167;SDS011;9716;53.114;18.040;2023-02-11T10:16:44;37.47;;;16.47;;
19167;SDS011;9716;53.114;18.040;2023-02-11T10:19:34;31.77;;;14.83;;
19167;SDS011;9716;53.114;18.040;2023-02-11T10:22:13;42.63;;;15.80;;
19167;SDS011;9716;53.114;18.040;2023-02-11T10:24:48;36.83;;;17.33;;
19167;SDS011;9716;53.114;18.040;2023-02-11T10:27:19;35.83;;;16.33;;
19167;SDS011;9716;53.114;18.040;2023-02-11T10:29:51;43.33;;;17.83;;
19167;SDS011;9716;53.114;18.040;2023-02-11T10:32:26;33.30;;;16.40;;
19167;SDS011;9716;53.114;18.040;2023-02-11T10:35:02;42.53;;;17.63;;
19167;SDS011;9716;53.114;18.040;2023-02-11T10:37:42;31.50;;;16.43;;
19167;SDS011;9716;53.114;18.040;2023-02-11T10:40:12;41.03;;;16.83;;
19167;SDS011;9716;53.114;18.040;2023-02-11T10:42:42;39.00;;;16.27;;
19167;SDS011;9716;53.114;18.040;2023-02-11T10:45:15;39.47;;;14.03;;
19167;SDS011;9716;53.114;18.040;2023-02-11T10:47:48;34.17;;;15.10;;
19167;SDS011;9716;53.114;18.040;2023-02-11T10:50:20;32.10;;;14.27;;
19167;SDS011;9716;53.114;18.040;2023-02-11T10:52:50;37.60;;;15.90;;
19167;SDS011;9716;53.114;18.040;2023-02-11T10:55:20;36.87;;;15.83;;
19167;SDS011;9716;53.114;18.040;2023-02-11T10:57:54;30.03;;;13.07;;
19167;SDS011;9716;53.114;18.040;2023-02-11T11:00:32;36.60;;;14.37;;
19167;SDS011;9716;53.114;18.040;2023-02-11T11:03:05;33.13;;;14.13;;
19167;SDS011;9716;53.114;18.040;2023-02-11T11:05:46;30.23;;;12.73;;
19167;SDS011;9716;53.114;18.040;2023-02-11T11:08:16;28.33;;;14.17;;
19167;SDS011;9716;53.114;18.040;2023-02-11T11:10:47;29.63;;;12.17;;
19167;SDS011;9716;53.114;18.040;2023-02-11T11:13:30;35.70;;;13.47;;
19167;SDS011;9716;53.114;18.040;2023-02-11T11:16:06;30.70;;;13.13;;
19167;SDS011;9716;53.114;18.040;2023-02-11T11:18:49;28.37;;;13.10;;
19167;SDS011;9716;53.114;18.040;2023-02-11T11:21:22;31.70;;;12.47;;
19167;SDS011;9716;53.114;18.040;2023-02-11T11:23:53;30.53;;;11.17;;
19167;SDS011;9716;53.114;18.040;2023-02-11T11:26:24;29.13;;;12.70;;
19167;SDS011;9716;53.114;18.040;2023-02-11T11:28:58;26.40;;;10.87;;
19167;SDS011;9716;53.114;18.040;2023-02-11T11:31:30;26.30;;;12.17;;
19167;SDS011;9716;53.114;18.040;2023-02-11T11:34:02;26.23;;;11.83;;
19167;SDS011;9716;53.114;18.040;2023-02-11T11:36:45;27.33;;;11.37;;
19167;SDS011;9716;53.114;18.040;2023-02-11T11:39:16;32.30;;;11.70;;
19167;SDS011;9716;53.114;18.040;2023-02-11T11:41:48;21.47;;;11.23;;
19167;SDS011;9716;53.114;18.040;2023-02-11T11:44:23;26.77;;;12.07;;
19167;SDS011;9716;53.114;18.040;2023-02-11T11:47:11;28.90;;;12.23;;
19167;SDS011;9716;53.114;18.040;2023-02-11T11:50:02;23.77;;;10.30;;
19167;SDS011;9716;53.114;18.040;2023-02-11T11:52:45;28.53;;;12.30;;
19167;SDS011;9716;53.114;18.040;2023-02-11T11:55:18;22.43;;;10.13;;
19167;SDS011;9716;53.114;18.040;2023-02-11T11:57:49;21.10;;;9.93;;
19167;SDS011;9716;53.114;18.040;2023-02-11T12:00:19;23.60;;;10.70;;
19167;SDS011;9716;53.114;18.040;2023-02-11T12:03:14;28.47;;;10.97;;
19167;SDS011;9716;53.114;18.040;2023-02-11T12:06:00;28.90;;;11.37;;
19167;SDS011;9716;53.114;18.040;2023-02-11T12:08:47;25.53;;;9.57;;
19167;SDS011;9716;53.114;18.040;2023-02-11T12:11:25;19.87;;;10.27;;
19167;SDS011;9716;53.114;18.040;2023-02-11T12:14:06;28.00;;;11.23;;
19167;SDS011;9716;53.114;18.040;2023-02-11T12:16:47;18.20;;;9.33;;
19167;SDS011;9716;53.114;18.040;2023-02-11T12:22:30;25.17;;;9.77;;
19167;SDS011;9716;53.114;18.040;2023-02-11T12:25:15;26.53;;;10.73;;
19167;SDS011;9716;53.114;18.040;2023-02-11T12:27:55;16.57;;;8.20;;
19167;SDS011;9716;53.114;18.040;2023-02-11T12:30:43;20.47;;;9.23;;
19167;SDS011;9716;53.114;18.040;2023-02-11T12:33:24;27.10;;;10.30;;
19167;SDS011;9716;53.114;18.040;2023-02-11T12:36:06;26.30;;;9.73;;
19167;SDS011;9716;53.114;18.040;2023-02-11T12:38:54;20.67;;;9.40;;
19167;SDS011;9716;53.114;18.040;2023-02-11T12:41:40;21.30;;;10.17;;
19167;SDS011;9716;53.114;18.040;2023-02-11T12:44:44;15.67;;;8.10;;
19167;SDS011;9716;53.114;18.040;2023-02-11T12:47:26;21.87;;;9.33;;
19167;SDS011;9716;53.114;18.040;2023-02-11T12:50:03;20.43;;;8.53;;
19167;SDS011;9716;53.114;18.040;2023-02-11T12:52:43;18.37;;;8.57;;
19167;SDS011;9716;53.114;18.040;2023-02-11T12:55:25;16.80;;;7.53;;
19167;SDS011;9716;53.114;18.040;2023-02-11T12:57:58;22.13;;;7.97;;
19167;SDS011;9716;53.114;18.040;2023-02-11T13:00:30;15.87;;;7.93;;
19167;SDS011;9716;53.114;18.040;2023-02-11T13:03:10;19.53;;;7.43;;
19167;SDS011;9716;53.114;18.040;2023-02-11T13:05:43;17.97;;;8.00;;
19167;SDS011;9716;53.114;18.040;2023-02-11T13:08:15;13.83;;;7.77;;
19167;SDS011;9716;53.114;18.040;2023-02-11T13:10:48;16.63;;;7.40;;
19167;SDS011;9716;53.114;18.040;2023-02-11T13:13:22;17.03;;;7.03;;
19167;SDS011;9716;53.114;18.040;2023-02-11T13:15:55;17.10;;;7.13;;
19167;SDS011;9716;53.114;18.040;2023-02-11T13:18:39;13.73;;;7.77;;
19167;SDS011;9716;53.114;18.040;2023-02-11T13:21:25;13.47;;;7.03;;
19167;SDS011;9716;53.114;18.040;2023-02-11T13:24:08;14.70;;;7.87;;
19167;SDS011;9716;53.114;18.040;2023-02-11T13:26:48;15.43;;;7.23;;
19167;SDS011;9716;53.114;18.040;2023-02-11T13:29:28;13.97;;;6.73;;
19167;SDS011;9716;53.114;18.040;2023-02-11T13:32:06;15.63;;;8.13;;
19167;SDS011;9716;53.114;18.040;2023-02-11T13:37:25;18.53;;;8.80;;
19167;SDS011;9716;53.114;18.040;2023-02-11T13:39:58;22.73;;;9.70;;
19167;SDS011;9716;53.114;18.040;2023-02-11T13:42:28;16.73;;;9.43;;
19167;SDS011;9716;53.114;18.040;2023-02-11T13:44:59;17.17;;;8.47;;
19167;SDS011;9716;53.114;18.040;2023-02-11T13:47:29;14.80;;;8.60;;
19167;SDS011;9716;53.114;18.040;2023-02-11T13:50:00;16.37;;;8.57;;
19167;SDS011;9716;53.114;18.040;2023-02-11T13:52:33;13.47;;;6.40;;
19167;SDS011;9716;53.114;18.040;2023-02-11T13:55:06;12.57;;;7.77;;
19167;SDS011;9716;53.114;18.040;2023-02-11T14:00:50;18.83;;;7.70;;
19167;SDS011;9716;53.114;18.040;2023-02-11T14:03:21;17.87;;;7.30;;
19167;SDS011;9716;53.114;18.040;2023-02-11T14:06:23;15.50;;;7.20;;
19167;SDS011;9716;53.114;18.040;2023-02-11T14:15:18;11.03;;;5.30;;
19167;SDS011;9716;53.114;18.040;2023-02-11T14:21:09;11.73;;;6.87;;
19167;SDS011;9716;53.114;18.040;2023-02-11T14:23:40;12.80;;;7.30;;
19167;SDS011;9716;53.114;18.040;2023-02-11T14:26:26;15.27;;;7.63;;
19167;SDS011;9716;53.114;18.040;2023-02-11T14:29:02;13.27;;;6.67;;
19167;SDS011;9716;53.114;18.040;2023-02-11T14:31:37;11.60;;;6.43;;
19167;SDS011;9716;53.114;18.040;2023-02-11T14:34:20;15.73;;;6.90;;
19167;SDS011;9716;53.114;18.040;2023-02-11T14:37:12;10.83;;;6.93;;
19167;SDS011;9716;53.114;18.040;2023-02-11T14:39:56;21.47;;;8.27;;
19167;SDS011;9716;53.114;18.040;2023-02-11T14:42:31;31.53;;;13.37;;
19167;SDS011;9716;53.114;18.040;2023-02-11T14:45:02;24.90;;;11.60;;
19167;SDS011;9716;53.114;18.040;2023-02-11T14:47:35;23.73;;;11.03;;
19167;SDS011;9716;53.114;18.040;2023-02-11T14:50:14;26.05;;;12.35;;
19167;SDS011;9716;53.114;18.040;2023-02-11T14:52:46;27.43;;;14.27;;
19167;SDS011;9716;53.114;18.040;2023-02-11T14:55:20;25.77;;;11.50;;
19167;SDS011;9716;53.114;18.040;2023-02-11T14:58:06;30.17;;;11.80;;
19167;SDS011;9716;53.114;18.040;2023-02-11T15:00:46;27.83;;;11.23;;
19167;SDS011;9716;53.114;18.040;2023-02-11T15:03:26;29.00;;;11.27;;
19167;SDS011;9716;53.114;18.040;2023-02-11T15:06:04;24.00;;;10.73;;
19167;SDS011;9716;53.114;18.040;2023-02-11T15:08:41;23.83;;;10.77;;
19167;SDS011;9716;53.114;18.040;2023-02-11T15:11:12;25.93;;;10.00;;
19167;SDS011;9716;53.114;18.040;2023-02-11T15:13:44;18.60;;;9.50;;
19167;SDS011;9716;53.114;18.040;2023-02-11T15:16:15;28.53;;;13.57;;
19167;SDS011;9716;53.114;18.040;2023-02-11T15:18:48;26.97;;;13.60;;
19167;SDS011;9716;53.114;18.040;2023-02-11T15:21:22;30.17;;;10.70;;
19167;SDS011;9716;53.114;18.040;2023-02-11T15:23:56;23.70;;;10.70;;
19167;SDS011;9716;53.114;18.040;2023-02-11T15:26:26;34.03;;;12.00;;
19167;SDS011;9716;53.114;18.040;2023-02-11T15:28:55;23.03;;;9.80;;
19167;SDS011;9716;53.114;18.040;2023-02-11T15:31:24;31.57;;;11.40;;